Time;durP1;ratioP1;P1;durP2;ratioP2;P2;SDS_P1;SDS_P2;PMS_P1;PMS_P2;Temp;Humidity;BMP_temperature;BMP_pressure;BME280_temperature;BME280_humidity;BME280_pressure;Samples;Min_cycle;Max_cycle;Signal;HPM_P1;HPM_P2
2023/08/15 00:00:16;;;;;;;19.70;12.43;;;;;;;;;;5131370;27;20121;-71
2023/08/15 00:02:42;;;;;;;19.77;12.00;;;;;;;;;;5131629;27;20053;-72
2023/08/15 00:05:09;;;;;;;19.25;12.88;;;;;;;;;;5131372;27;20042;-70
2023/08/15 00:07:55;;;;;;;20.52;12.32;;;;;;;;;;5131346;27;20065;-72
2023/08/15 00:10:21;;;;;;;17.92;12.77;;;;;;;;;;5131172;27;20501;-71
2023/08/15 00:12:47;;;;;;;21.05;12.13;;;;;;;;;;5131333;27;20058;-70
2023/08/15 00:15:13;;;;;;;14.48;12.48;;;;;;;;;;5113098;27;20075;-71
2023/08/15 00:17:39;;;;;;;23.48;12.77;;;;;;;;;;5131216;27;20045;-70
2023/08/15 00:20:06;;;;;;;20.05;12.27;;;;;;;;;;5131228;27;20031;-72
2023/08/15 00:22:32;;;;;;;15.65;12.82;;;;;;;;;;5131236;27;20690;-71
2023/08/15 00:24:59;;;;;;;19.45;13.45;;;;;;;;;;5131378;27;20104;-71
2023/08/15 00:27:25;;;;;;;23.60;13.43;;;;;;;;;;5131086;27;20065;-70
2023/08/15 00:29:50;;;;;;;24.38;13.82;;;;;;;;;;5131175;27;20031;-71
2023/08/15 00:32:16;;;;;;;21.92;13.00;;;;;;;;;;5130920;27;20046;-72
2023/08/15 00:34:44;;;;;;;13.38;12.07;;;;;;;;;;5113021;28;20096;-71
2023/08/15 00:37:10;;;;;;;15.70;11.82;;;;;;;;;;5130963;27;20039;-70
2023/08/15 00:39:36;;;;;;;20.02;11.70;;;;;;;;;;5130881;27;20031;-72
2023/08/15 00:42:02;;;;;;;19.30;11.50;;;;;;;;;;5131003;27;20031;-71
2023/08/15 00:44:29;;;;;;;12.55;10.10;;;;;;;;;;5130882;27;20134;-71
2023/08/15 00:46:56;;;;;;;24.08;18.23;;;;;;;;;;5112682;28;20035;-72
2023/08/15 00:49:23;;;;;;;13.30;10.60;;;;;;;;;;5131011;27;20080;-71
2023/08/15 00:51:49;;;;;;;11.93;10.27;;;;;;;;;;5130854;27;20051;-71
2023/08/15 00:54:15;;;;;;;18.00;13.75;;;;;;;;;;5131842;27;20451;-71
2023/08/15 00:56:41;;;;;;;21.23;13.77;;;;;;;;;;5116658;27;20058;-71
2023/08/15 00:59:07;;;;;;;19.92;13.25;;;;;;;;;;5115505;27;20038;-73
2023/08/15 01:01:33;;;;;;;17.13;11.90;;;;;;;;;;5131056;27;20117;-72
2023/08/15 01:03:59;;;;;;;12.38;11.10;;;;;;;;;;5130901;27;20038;-71
2023/08/15 01:06:25;;;;;;;21.42;11.90;;;;;;;;;;5112515;28;20489;-70
2023/08/15 01:08:52;;;;;;;11.43;10.32;;;;;;;;;;5130835;27;20035;-70
2023/08/15 01:11:18;;;;;;;16.70;11.32;;;;;;;;;;5096060;27;20070;-71
2023/08/15 01:13:47;;;;;;;12.75;11.35;;;;;;;;;;5134836;27;20115;-71
2023/08/15 01:16:19;;;;;;;14.10;11.20;;;;;;;;;;5134834;27;20039;-72
2023/08/15 01:18:46;;;;;;;13.50;11.20;;;;;;;;;;5116672;27;20019;-71
2023/08/15 01:21:13;;;;;;;14.65;11.98;;;;;;;;;;5099591;27;20038;-71
2023/08/15 01:23:42;;;;;;;17.13;11.50;;;;;;;;;;5116442;27;20035;-70
2023/08/15 01:26:08;;;;;;;21.48;11.73;;;;;;;;;;5116326;27;20038;-71
2023/08/15 01:28:35;;;;;;;18.42;12.00;;;;;;;;;;5134414;27;20031;-72
2023/08/15 01:31:03;;;;;;;21.52;12.40;;;;;;;;;;5116063;27;20039;-72
2023/08/15 01:33:30;;;;;;;16.67;13.68;;;;;;;;;;5099058;27;20038;-70
2023/08/15 01:35:58;;;;;;;19.40;13.02;;;;;;;;;;5134350;27;20117;-70
2023/08/15 01:38:28;;;;;;;14.88;13.30;;;;;;;;;;5134246;27;20057;-72
2023/08/15 01:40:54;;;;;;;17.63;11.98;;;;;;;;;;5115989;27;20061;-71
2023/08/15 01:43:22;;;;;;;20.02;12.23;;;;;;;;;;5116094;27;20493;-71
2023/08/15 01:45:48;;;;;;;12.15;10.45;;;;;;;;;;5134420;27;20035;-72
2023/08/15 01:48:14;;;;;;;21.40;13.13;;;;;;;;;;5134209;27;20043;-70
2023/08/15 01:50:40;;;;;;;15.50;10.20;;;;;;;;;;5133912;27;20577;-71
2023/08/15 01:53:07;;;;;;;11.90;9.85;;;;;;;;;;5134425;27;20067;-71
2023/08/15 01:55:33;;;;;;;11.60;9.30;;;;;;;;;;5134325;27;20027;-72
2023/08/15 01:57:59;;;;;;;12.70;9.32;;;;;;;;;;5116036;27;20035;-71
2023/08/15 02:00:25;;;;;;;16.83;9.13;;;;;;;;;;5115821;27;20393;-71
2023/08/15 02:02:51;;;;;;;13.55;8.88;;;;;;;;;;5134512;27;20034;-70
2023/08/15 02:05:17;;;;;;;13.02;10.25;;;;;;;;;;5116239;27;20031;-72
2023/08/15 02:07:44;;;;;;;14.38;10.35;;;;;;;;;;5134187;27;20045;-72
2023/08/15 02:10:11;;;;;;;13.68;11.05;;;;;;;;;;5099150;27;20046;-72
2023/08/15 02:12:37;;;;;;;21.90;12.82;;;;;;;;;;5134018;27;20038;-71
2023/08/15 02:15:04;;;;;;;16.02;12.18;;;;;;;;;;5133896;27;20531;-73
2023/08/15 02:17:32;;;;;;;20.73;12.00;;;;;;;;;;5116056;27;20516;-72
2023/08/15 02:20:00;;;;;;;19.58;11.55;;;;;;;;;;5134036;27;20035;-72
2023/08/15 02:22:26;;;;;;;14.88;10.45;;;;;;;;;;5133132;27;20513;-72
2023/08/15 02:24:52;;;;;;;12.55;9.60;;;;;;;;;;5114652;27;20050;-70
2023/08/15 02:27:19;;;;;;;10.90;8.52;;;;;;;;;;5133488;27;20039;-71
2023/08/15 02:29:45;;;;;;;9.07;7.68;;;;;;;;;;5133438;27;20554;-71
2023/08/15 02:32:12;;;;;;;13.25;8.10;;;;;;;;;;5133370;27;20039;-70
2023/08/15 02:34:38;;;;;;;10.50;7.63;;;;;;;;;;5133253;27;20042;-72
2023/08/15 02:37:05;;;;;;;10.18;8.15;;;;;;;;;;5117326;27;20027;-71
2023/08/15 02:39:31;;;;;;;12.07;7.75;;;;;;;;;;5116080;27;20046;-72
2023/08/15 02:41:58;;;;;;;11.15;9.60;;;;;;;;;;5133102;27;20062;-73
2023/08/15 02:44:24;;;;;;;9.07;8.27;;;;;;;;;;5133467;27;20027;-70
2023/08/15 02:46:50;;;;;;;13.73;8.35;;;;;;;;;;5133269;27;20039;-70
2023/08/15 02:49:17;;;;;;;10.15;7.85;;;;;;;;;;5114801;27;20415;-72
2023/08/15 02:51:43;;;;;;;16.08;7.95;;;;;;;;;;5080512;27;20104;-71
2023/08/15 02:54:09;;;;;;;12.35;7.00;;;;;;;;;;5132868;27;20035;-72
2023/08/15 02:56:35;;;;;;;14.57;7.70;;;;;;;;;;5114425;27;20117;-70
2023/08/15 02:59:01;;;;;;;17.88;8.15;;;;;;;;;;5132808;27;20114;-71
2023/08/15 03:01:27;;;;;;;14.75;9.07;;;;;;;;;;5114396;27;20042;-72
2023/08/15 03:03:53;;;;;;;13.75;8.52;;;;;;;;;;5132848;27;20035;-71
2023/08/15 03:06:19;;;;;;;10.32;8.88;;;;;;;;;;5132765;27;20409;-73
2023/08/15 03:08:45;;;;;;;12.48;7.32;;;;;;;;;;5132650;27;20068;-72
2023/08/15 03:11:11;;;;;;;10.50;7.35;;;;;;;;;;5114171;27;20128;-71
2023/08/15 03:13:38;;;;;;;12.48;9.10;;;;;;;;;;5114034;27;20051;-71
2023/08/15 03:16:04;;;;;;;14.75;10.63;;;;;;;;;;5132565;27;20524;-73
2023/08/15 03:18:31;;;;;;;17.00;9.43;;;;;;;;;;5132241;27;20065;-72
2023/08/15 03:20:57;;;;;;;14.73;9.90;;;;;;;;;;5132384;27;20502;-71
2023/08/15 03:23:24;;;;;;;18.13;8.82;;;;;;;;;;5132621;27;20214;-71
2023/08/15 03:25:56;;;;;;;9.38;7.85;;;;;;;;;;5131996;27;20442;-71
2023/08/15 03:28:22;;;;;;;14.85;8.30;;;;;;;;;;5114100;27;20176;-72
2023/08/15 03:30:48;;;;;;;11.43;7.45;;;;;;;;;;5096781;27;20047;-72
2023/08/15 03:33:16;;;;;;;10.93;7.72;;;;;;;;;;5114056;27;20038;-71
2023/08/15 03:35:46;;;;;;;19.67;7.93;;;;;;;;;;5131674;27;20505;-72
2023/08/15 03:38:16;;;;;;;15.43;7.85;;;;;;;;;;5132121;27;20135;-70
2023/08/15 03:40:43;;;;;;;12.60;7.70;;;;;;;;;;5113861;27;20118;-73
2023/08/15 03:43:09;;;;;;;14.18;7.70;;;;;;;;;;5113904;27;20110;-71
2023/08/15 03:45:35;;;;;;;14.13;8.73;;;;;;;;;;5131893;27;20031;-72
2023/08/15 03:48:01;;;;;;;11.50;8.10;;;;;;;;;;5131916;27;20108;-72
2023/08/15 03:50:31;;;;;;;12.55;8.00;;;;;;;;;;5113588;27;20027;-71
2023/08/15 03:52:57;;;;;;;17.58;8.80;;;;;;;;;;5113506;27;20061;-72
2023/08/15 03:55:24;;;;;;;14.38;8.00;;;;;;;;;;5113700;27;20405;-72
2023/08/15 03:57:50;;;;;;;9.77;7.57;;;;;;;;;;5131864;27;20027;-73
2023/08/15 04:00:19;;;;;;;12.27;7.40;;;;;;;;;;5097753;27;20035;-73
2023/08/15 04:02:45;;;;;;;16.58;8.60;;;;;;;;;;5119457;27;20404;-72
2023/08/15 04:05:12;;;;;;;14.23;8.63;;;;;;;;;;5119427;27;20038;-71
2023/08/15 04:07:38;;;;;;;9.45;7.90;;;;;;;;;;5132301;27;20532;-71
2023/08/15 04:10:05;;;;;;;14.38;7.90;;;;;;;;;;5131529;27;20485;-71
2023/08/15 04:12:33;;;;;;;18.23;7.75;;;;;;;;;;5131562;27;20050;-72
2023/08/15 04:14:59;;;;;;;10.45;7.55;;;;;;;;;;5109541;28;20081;-73
2023/08/15 04:17:25;;;;;;;10.23;8.02;;;;;;;;;;5110848;28;20039;-72
2023/08/15 04:19:52;;;;;;;11.02;7.47;;;;;;;;;;5110685;28;20035;-72
2023/08/15 04:22:18;;;;;;;17.13;6.95;;;;;;;;;;5109464;28;20533;-72
2023/08/15 04:24:44;;;;;;;15.55;7.22;;;;;;;;;;5110805;28;20093;-72
2023/08/15 04:27:10;;;;;;;12.43;7.70;;;;;;;;;;5109481;28;20035;-72
2023/08/15 04:29:36;;;;;;;7.95;7.22;;;;;;;;;;5109425;28;20586;-73
2023/08/15 04:32:02;;;;;;;16.27;7.00;;;;;;;;;;5110518;28;20052;-72
2023/08/15 04:34:29;;;;;;;15.13;8.20;;;;;;;;;;5092625;28;20525;-73
2023/08/15 04:36:55;;;;;;;10.52;6.82;;;;;;;;;;5092081;28;20040;-72
2023/08/15 04:39:23;;;;;;;9.32;6.25;;;;;;;;;;5092463;28;20027;-73
2023/08/15 04:41:50;;;;;;;8.43;6.40;;;;;;;;;;5110428;28;20063;-72
2023/08/15 04:44:16;;;;;;;11.77;6.57;;;;;;;;;;5109222;28;20027;-71
2023/08/15 04:46:42;;;;;;;8.70;6.28;;;;;;;;;;5109709;28;20449;-72
2023/08/15 04:49:08;;;;;;;10.35;6.80;;;;;;;;;;5110515;28;20529;-73
2023/08/15 04:51:34;;;;;;;10.55;7.55;;;;;;;;;;5110246;28;20132;-73
2023/08/15 04:54:02;;;;;;;10.05;6.97;;;;;;;;;;5109325;28;20437;-72
2023/08/15 04:56:28;;;;;;;7.47;6.63;;;;;;;;;;5110428;28;20039;-73
2023/08/15 04:58:53;;;;;;;7.45;6.75;;;;;;;;;;5108796;28;20642;-72
2023/08/15 05:01:20;;;;;;;13.25;7.00;;;;;;;;;;5109021;28;20044;-72
2023/08/15 05:03:46;;;;;;;6.68;6.07;;;;;;;;;;5110157;28;20046;-72
2023/08/15 05:06:12;;;;;;;13.60;7.30;;;;;;;;;;5108955;28;20035;-71
2023/08/15 05:08:38;;;;;;;7.80;6.95;;;;;;;;;;5108956;28;20031;-72
2023/08/15 05:11:05;;;;;;;10.80;7.18;;;;;;;;;;5109028;28;20039;-72
2023/08/15 05:13:31;;;;;;;12.93;6.30;;;;;;;;;;5117264;27;20536;-72
2023/08/15 05:15:57;;;;;;;8.57;6.60;;;;;;;;;;5112442;28;20035;-72
2023/08/15 05:18:23;;;;;;;8.70;5.80;;;;;;;;;;5112363;28;20063;-73
2023/08/15 05:20:49;;;;;;;6.75;5.97;;;;;;;;;;5130456;27;20043;-72
2023/08/15 05:23:15;;;;;;;7.32;6.30;;;;;;;;;;5112334;27;20058;-71
2023/08/15 05:25:43;;;;;;;8.35;6.38;;;;;;;;;;5130396;27;20031;-73
2023/08/15 05:28:10;;;;;;;7.55;6.82;;;;;;;;;;5079134;27;20523;-72
2023/08/15 05:30:37;;;;;;;6.32;5.80;;;;;;;;;;5098576;27;20136;-72
2023/08/15 05:33:03;;;;;;;6.28;5.72;;;;;;;;;;5131600;27;20042;-74
2023/08/15 05:35:30;;;;;;;7.55;6.40;;;;;;;;;;5096961;27;20027;-72
2023/08/15 05:37:56;;;;;;;11.10;6.53;;;;;;;;;;5130369;27;20383;-73
2023/08/15 05:40:23;;;;;;;11.63;5.82;;;;;;;;;;5130611;27;20031;-72
2023/08/15 05:42:49;;;;;;;11.00;5.57;;;;;;;;;;5130432;27;20042;-73
2023/08/15 05:45:15;;;;;;;5.45;4.95;;;;;;;;;;5112113;28;20054;-72
2023/08/15 05:47:41;;;;;;;5.10;4.60;;;;;;;;;;5130136;27;20027;-72
2023/08/15 05:50:08;;;;;;;7.25;4.40;;;;;;;;;;5130430;27;20531;-72
2023/08/15 05:52:34;;;;;;;6.80;4.55;;;;;;;;;;5130230;27;20043;-72
2023/08/15 05:55:00;;;;;;;5.25;4.10;;;;;;;;;;5111655;27;20115;-72
2023/08/15 05:57:26;;;;;;;7.43;4.07;;;;;;;;;;5131172;27;20035;-72
2023/08/15 05:59:53;;;;;;;4.82;3.95;;;;;;;;;;5133814;27;20031;-73
2023/08/15 06:02:19;;;;;;;6.85;3.60;;;;;;;;;;5133964;27;20068;-73
2023/08/15 06:04:45;;;;;;;8.93;4.05;;;;;;;;;;5133915;27;20030;-73
2023/08/15 06:07:12;;;;;;;3.80;3.42;;;;;;;;;;5133637;27;20058;-72
2023/08/15 06:09:38;;;;;;;4.28;3.10;;;;;;;;;;5133796;27;20031;-73
2023/08/15 06:12:05;;;;;;;3.42;3.13;;;;;;;;;;5133634;27;20054;-72
2023/08/15 06:14:32;;;;;;;4.28;3.45;;;;;;;;;;5133687;27;20573;-72
2023/08/15 06:16:57;;;;;;;4.88;3.60;;;;;;;;;;5133506;27;20875;-71
2023/08/15 06:19:24;;;;;;;3.78;3.38;;;;;;;;;;5133995;27;20031;-72
2023/08/15 06:21:50;;;;;;;5.15;3.20;;;;;;;;;;5133706;27;20042;-73
2023/08/15 06:24:16;;;;;;;4.95;3.22;;;;;;;;;;5115480;27;20031;-72
2023/08/15 06:26:42;;;;;;;3.97;3.03;;;;;;;;;;5115232;27;20035;-72
2023/08/15 06:29:07;;;;;;;4.13;2.70;;;;;;;;;;5115671;27;20042;-73
2023/08/15 06:31:33;;;;;;;3.33;3.03;;;;;;;;;;5134160;27;20138;-73
2023/08/15 06:34:00;;;;;;;3.20;2.90;;;;;;;;;;5116010;27;20118;-73
2023/08/15 06:36:26;;;;;;;4.00;2.67;;;;;;;;;;5134335;27;20476;-74
2023/08/15 06:38:52;;;;;;;3.55;3.17;;;;;;;;;;5133449;27;20118;-73
2023/08/15 06:41:18;;;;;;;3.20;2.90;;;;;;;;;;5133391;27;20118;-74
2023/08/15 06:43:44;;;;;;;2.90;2.70;;;;;;;;;;5081060;27;20031;-73
2023/08/15 06:46:11;;;;;;;4.05;3.40;;;;;;;;;;5133324;27;20039;-72
2023/08/15 06:48:37;;;;;;;4.78;3.00;;;;;;;;;;5133158;27;20087;-73
2023/08/15 06:51:03;;;;;;;3.00;2.80;;;;;;;;;;5132796;27;20497;-73
2023/08/15 06:53:33;;;;;;;5.38;3.30;;;;;;;;;;5133154;27;20555;-73
2023/08/15 06:55:59;;;;;;;5.47;3.42;;;;;;;;;;5132680;27;20035;-72
2023/08/15 06:58:25;;;;;;;4.25;3.30;;;;;;;;;;5133206;27;20163;-72
2023/08/15 07:00:51;;;;;;;3.65;3.10;;;;;;;;;;5132889;27;20061;-72
2023/08/15 07:03:18;;;;;;;5.65;3.22;;;;;;;;;;5133366;27;20497;-73
2023/08/15 07:05:44;;;;;;;4.28;3.60;;;;;;;;;;5134365;27;20465;-72
2023/08/15 07:08:12;;;;;;;3.60;3.30;;;;;;;;;;5121696;27;20235;-73
2023/08/15 07:10:39;;;;;;;3.88;3.03;;;;;;;;;;5137945;27;20113;-74
2023/08/15 07:13:06;;;;;;;4.28;3.25;;;;;;;;;;5113792;27;20055;-73
2023/08/15 07:15:32;;;;;;;4.05;3.40;;;;;;;;;;5132663;27;20054;-73
2023/08/15 07:17:58;;;;;;;4.40;3.10;;;;;;;;;;5132259;27;20096;-74
2023/08/15 07:20:24;;;;;;;3.50;3.20;;;;;;;;;;5132608;27;20054;-73
2023/08/15 07:22:50;;;;;;;5.05;3.33;;;;;;;;;;5132290;27;20043;-72
2023/08/15 07:25:16;;;;;;;4.38;3.17;;;;;;;;;;5132347;27;20037;-72
2023/08/15 07:27:42;;;;;;;5.85;3.38;;;;;;;;;;5132197;27;20520;-73
2023/08/15 07:30:12;;;;;;;4.03;3.33;;;;;;;;;;5132456;27;20493;-73
2023/08/15 07:32:38;;;;;;;4.03;3.25;;;;;;;;;;5132680;27;20079;-73
2023/08/15 07:35:05;;;;;;;3.63;3.40;;;;;;;;;;5132771;27;20027;-72
2023/08/15 07:37:31;;;;;;;4.72;3.20;;;;;;;;;;5133092;27;20512;-74
2023/08/15 07:40:17;;;;;;;5.05;3.17;;;;;;;;;;5132951;27;20031;-72
2023/08/15 07:42:43;;;;;;;3.30;3.00;;;;;;;;;;5132357;27;20074;-72
2023/08/15 07:45:10;;;;;;;3.25;2.85;;;;;;;;;;5132889;27;20038;-74
2023/08/15 07:47:38;;;;;;;4.45;3.30;;;;;;;;;;5133082;27;20046;-73
2023/08/15 07:50:22;;;;;;;9.25;3.38;;;;;;;;;;5132315;27;20514;-73
2023/08/15 07:52:48;;;;;;;5.25;3.13;;;;;;;;;;5131834;27;20536;-72
2023/08/15 07:55:15;;;;;;;5.45;3.20;;;;;;;;;;5132150;27;20035;-74
2023/08/15 07:57:45;;;;;;;4.75;3.13;;;;;;;;;;5132022;27;20139;-73
2023/08/15 08:00:12;;;;;;;7.03;3.58;;;;;;;;;;5131904;27;20474;-74
2023/08/15 08:02:42;;;;;;;4.88;3.20;;;;;;;;;;5131789;27;20039;-73
2023/08/15 08:05:09;;;;;;;7.35;3.28;;;;;;;;;;5131720;27;20039;-73
2023/08/15 08:07:35;;;;;;;2.90;2.65;;;;;;;;;;5131672;27;20037;-72
2023/08/15 08:10:01;;;;;;;4.75;3.17;;;;;;;;;;5131340;27;20122;-73
2023/08/15 08:12:28;;;;;;;3.92;3.22;;;;;;;;;;5131604;27;20455;-72
2023/08/15 08:14:54;;;;;;;3.60;3.30;;;;;;;;;;5131114;27;20078;-72
2023/08/15 08:17:21;;;;;;;5.60;3.08;;;;;;;;;;5131447;27;20117;-72
2023/08/15 08:19:47;;;;;;;5.95;3.50;;;;;;;;;;5131379;27;20084;-74
2023/08/15 08:22:13;;;;;;;4.20;3.15;;;;;;;;;;5130510;27;20039;-72
2023/08/15 08:24:39;;;;;;;6.05;3.70;;;;;;;;;;5134472;27;20039;-74
2023/08/15 08:27:05;;;;;;;3.97;3.53;;;;;;;;;;5132068;27;20031;-73
2023/08/15 08:29:31;;;;;;;3.70;3.40;;;;;;;;;;5131294;27;20027;-73
2023/08/15 08:31:57;;;;;;;4.20;3.25;;;;;;;;;;5112652;27;20043;-74
2023/08/15 08:34:23;;;;;;;6.47;3.05;;;;;;;;;;5112773;27;20375;-72
2023/08/15 08:36:49;;;;;;;6.90;3.50;;;;;;;;;;5130823;27;20041;-75
2023/08/15 08:39:15;;;;;;;3.95;3.45;;;;;;;;;;5131170;27;20401;-72
2023/08/15 08:41:41;;;;;;;4.05;3.50;;;;;;;;;;5131057;27;20054;-71
2023/08/15 08:44:07;;;;;;;4.68;3.30;;;;;;;;;;5131002;27;20027;-74
2023/08/15 08:46:36;;;;;;;6.38;3.30;;;;;;;;;;5131158;27;20046;-73
2023/08/15 08:49:03;;;;;;;3.65;3.30;;;;;;;;;;5130713;27;20071;-73
2023/08/15 08:51:29;;;;;;;3.33;3.10;;;;;;;;;;5131051;27;20043;-73
2023/08/15 08:53:55;;;;;;;5.20;3.08;;;;;;;;;;5112908;27;20041;-74
2023/08/15 08:56:24;;;;;;;5.43;3.22;;;;;;;;;;5130919;27;20035;-72
2023/08/15 08:58:53;;;;;;;4.90;3.63;;;;;;;;;;5130714;27;20555;-73
2023/08/15 09:01:19;;;;;;;6.40;2.92;;;;;;;;;;5113705;28;20494;-72
2023/08/15 09:03:45;;;;;;;4.25;3.42;;;;;;;;;;5131453;27;20125;-74
2023/08/15 09:06:12;;;;;;;6.15;2.97;;;;;;;;;;5131223;27;20054;-74
2023/08/15 09:08:38;;;;;;;5.63;3.47;;;;;;;;;;5131674;27;20031;-72
2023/08/15 09:11:04;;;;;;;4.45;3.30;;;;;;;;;;5131254;27;20039;-73
2023/08/15 09:13:29;;;;;;;6.28;3.55;;;;;;;;;;5113070;28;20096;-74
2023/08/15 09:15:58;;;;;;;3.47;3.00;;;;;;;;;;5131927;27;20039;-71
2023/08/15 09:18:26;;;;;;;3.05;2.85;;;;;;;;;;5131750;27;20039;-72
2023/08/15 09:20:52;;;;;;;5.13;3.50;;;;;;;;;;5131473;27;20035;-73
2023/08/15 09:23:18;;;;;;;3.60;3.30;;;;;;;;;;5131026;27;20032;-73
2023/08/15 09:25:44;;;;;;;5.10;3.20;;;;;;;;;;5130828;27;20474;-73
2023/08/15 09:28:10;;;;;;;3.85;3.20;;;;;;;;;;5130725;27;20030;-73
2023/08/15 09:30:36;;;;;;;4.72;3.25;;;;;;;;;;5131573;27;20118;-73
2023/08/15 09:33:04;;;;;;;2.80;2.58;;;;;;;;;;5133276;27;20413;-73
2023/08/15 09:35:30;;;;;;;3.58;3.28;;;;;;;;;;5135127;27;20055;-73
2023/08/15 09:37:56;;;;;;;4.82;3.20;;;;;;;;;;5116043;27;20024;-74
2023/08/15 09:40:23;;;;;;;3.60;3.30;;;;;;;;;;5134789;27;20517;-74
2023/08/15 09:42:49;;;;;;;3.28;3.00;;;;;;;;;;5134517;27;20071;-73
2023/08/15 09:45:15;;;;;;;5.80;3.35;;;;;;;;;;5099241;27;20480;-74
2023/08/15 09:47:41;;;;;;;3.80;3.20;;;;;;;;;;5135007;27;20031;-72
2023/08/15 09:50:08;;;;;;;2.70;2.47;;;;;;;;;;5134340;27;20067;-72
2023/08/15 09:52:35;;;;;;;6.20;3.40;;;;;;;;;;5134500;27;20043;-73
2023/08/15 09:55:02;;;;;;;3.70;3.40;;;;;;;;;;5134426;27;20038;-73
2023/08/15 09:57:30;;;;;;;3.90;3.55;;;;;;;;;;5134994;27;20395;-73
2023/08/15 09:59:55;;;;;;;7.53;3.40;;;;;;;;;;5134836;27;20035;-73
2023/08/15 10:02:22;;;;;;;3.55;3.20;;;;;;;;;;5134743;27;20524;-73
2023/08/15 10:05:01;;;;;;;4.70;3.38;;;;;;;;;;5135080;27;20039;-73
2023/08/15 10:07:28;;;;;;;5.97;3.35;;;;;;;;;;5134808;27;20035;-73
2023/08/15 10:09:54;;;;;;;2.83;2.63;;;;;;;;;;5136108;27;20035;-74
2023/08/15 10:12:20;;;;;;;3.40;3.10;;;;;;;;;;5120236;27;20095;-73
2023/08/15 10:14:47;;;;;;;4.60;3.17;;;;;;;;;;5136555;27;20051;-74
2023/08/15 10:17:13;;;;;;;5.32;3.47;;;;;;;;;;5134653;27;20031;-73
2023/08/15 10:19:39;;;;;;;5.03;3.20;;;;;;;;;;5134891;27;20027;-72
2023/08/15 10:22:05;;;;;;;3.60;3.40;;;;;;;;;;5099119;27;20035;-73
2023/08/15 10:24:30;;;;;;;4.47;3.65;;;;;;;;;;5099292;27;20452;-73
2023/08/15 10:26:56;;;;;;;3.58;3.30;;;;;;;;;;5134694;27;20043;-73
2023/08/15 10:29:23;;;;;;;3.70;3.38;;;;;;;;;;5134503;27;20031;-74
2023/08/15 10:31:49;;;;;;;9.82;3.72;;;;;;;;;;5134299;27;20039;-72
2023/08/15 10:34:15;;;;;;;3.97;3.67;;;;;;;;;;5115664;27;20038;-72
2023/08/15 10:36:42;;;;;;;4.15;3.08;;;;;;;;;;5116180;27;20043;-72
2023/08/15 10:39:08;;;;;;;3.80;3.45;;;;;;;;;;5115808;27;20084;-72
2023/08/15 10:41:35;;;;;;;10.75;3.53;;;;;;;;;;5134096;27;20046;-73
2023/08/15 10:44:03;;;;;;;3.67;3.03;;;;;;;;;;5114441;27;20027;-73
2023/08/15 10:46:29;;;;;;;4.65;3.25;;;;;;;;;;5134056;27;20035;-73
2023/08/15 10:48:55;;;;;;;4.65;3.53;;;;;;;;;;5115272;27;20027;-72
2023/08/15 10:51:32;;;;;;;4.60;3.40;;;;;;;;;;5133939;27;20501;-73
2023/08/15 10:53:59;;;;;;;3.75;3.30;;;;;;;;;;5133514;27;20027;-72
2023/08/15 10:56:28;;;;;;;5.05;3.50;;;;;;;;;;5134085;27;20031;-73
2023/08/15 10:58:54;;;;;;;3.42;3.13;;;;;;;;;;5115997;27;20027;-71
2023/08/15 11:01:24;;;;;;;4.60;2.85;;;;;;;;;;5116122;27;20110;-73
2023/08/15 11:03:50;;;;;;;;;;;;;;;;;;5134230;27;20066;-73
2023/08/15 11:06:16;;;;;;;3.88;3.33;;;;;;;;;;5133479;27;19954;-73
2023/08/15 11:08:47;;;;;;;4.32;4.03;;;;;;;;;;5133631;27;20035;-72
2023/08/15 11:11:14;;;;;;;6.72;4.05;;;;;;;;;;5133253;27;20130;-74
2023/08/15 11:13:40;;;;;;;6.63;3.80;;;;;;;;;;5133175;27;20055;-73
2023/08/15 11:16:07;;;;;;;6.70;4.05;;;;;;;;;;5114897;27;20058;-72
2023/08/15 11:18:33;;;;;;;6.95;3.92;;;;;;;;;;5137461;27;20039;-73
2023/08/15 11:21:00;;;;;;;6.28;3.85;;;;;;;;;;5134498;27;20031;-72
2023/08/15 11:23:28;;;;;;;4.97;3.97;;;;;;;;;;5133361;27;20031;-71
2023/08/15 11:26:04;;;;;;;8.05;4.28;;;;;;;;;;5133683;27;20066;-74
2023/08/15 11:28:30;;;;;;;4.60;4.18;;;;;;;;;;5115197;27;20031;-74
2023/08/15 11:30:57;;;;;;;5.70;3.83;;;;;;;;;;5133073;27;20041;-71
2023/08/15 11:33:24;;;;;;;10.55;4.18;;;;;;;;;;5133142;27;20042;-72
2023/08/15 11:35:50;;;;;;;6.45;3.97;;;;;;;;;;5133313;27;20035;-72
2023/08/15 11:38:19;;;;;;;9.35;3.65;;;;;;;;;;5132717;27;20401;-72
2023/08/15 11:40:44;;;;;;;8.30;4.00;;;;;;;;;;5114666;27;20108;-72
2023/08/15 11:43:10;;;;;;;9.85;3.47;;;;;;;;;;5114625;27;20122;-72
2023/08/15 11:45:39;;;;;;;6.85;3.75;;;;;;;;;;5132327;27;20027;-73
2023/08/15 11:48:05;;;;;;;4.35;3.10;;;;;;;;;;5113943;27;20035;-72
2023/08/15 11:50:32;;;;;;;3.08;2.80;;;;;;;;;;5132272;27;20027;-72
2023/08/15 11:52:58;;;;;;;7.45;3.10;;;;;;;;;;5132258;27;20498;-73
2023/08/15 11:55:24;;;;;;;4.80;3.22;;;;;;;;;;5132653;27;20027;-73
2023/08/15 11:57:51;;;;;;;4.68;3.20;;;;;;;;;;5113784;27;20647;-74
2023/08/15 12:00:20;;;;;;;10.02;3.13;;;;;;;;;;5132296;27;20437;-73
2023/08/15 12:02:47;;;;;;;3.55;3.33;;;;;;;;;;5132064;27;20039;-72
2023/08/15 12:05:13;;;;;;;3.50;2.85;;;;;;;;;;5132185;27;20035;-73
2023/08/15 12:07:40;;;;;;;8.93;3.08;;;;;;;;;;5114592;27;20038;-73
2023/08/15 12:10:06;;;;;;;2.90;2.70;;;;;;;;;;5132371;27;20032;-72
2023/08/15 12:12:38;;;;;;;3.20;2.90;;;;;;;;;;5132755;27;20074;-72
2023/08/15 12:15:05;;;;;;;3.97;3.50;;;;;;;;;;5132721;27;20054;-71
2023/08/15 12:17:32;;;;;;;3.97;3.10;;;;;;;;;;5132834;27;20039;-73
2023/08/15 12:19:58;;;;;;;5.63;3.63;;;;;;;;;;5114437;27;20038;-74
2023/08/15 12:22:24;;;;;;;5.47;3.50;;;;;;;;;;5132151;27;20109;-73
2023/08/15 12:24:50;;;;;;;5.50;3.80;;;;;;;;;;5132576;27;20163;-73
2023/08/15 12:27:16;;;;;;;6.82;3.53;;;;;;;;;;5132163;27;20102;-72
2023/08/15 12:29:42;;;;;;;6.63;3.15;;;;;;;;;;5114217;27;20039;-72
2023/08/15 12:32:08;;;;;;;3.90;2.72;;;;;;;;;;5132097;27;20045;-73
2023/08/15 12:34:34;;;;;;;2.83;2.63;;;;;;;;;;5132363;27;20031;-73
2023/08/15 12:37:00;;;;;;;6.63;2.90;;;;;;;;;;5132179;27;20409;-72
2023/08/15 12:39:26;;;;;;;7.38;3.17;;;;;;;;;;5131135;27;20035;-73
2023/08/15 12:41:51;;;;;;;5.90;2.80;;;;;;;;;;5112789;27;20050;-73
2023/08/15 12:44:17;;;;;;;2.90;2.70;;;;;;;;;;5130902;27;20505;-73
2023/08/15 12:46:44;;;;;;;2.80;2.60;;;;;;;;;;5131331;27;20458;-73
2023/08/15 12:49:10;;;;;;;3.10;2.70;;;;;;;;;;5113062;28;20030;-73
2023/08/15 12:51:36;;;;;;;3.17;2.38;;;;;;;;;;5131538;27;20043;-71
2023/08/15 12:54:02;;;;;;;6.25;2.40;;;;;;;;;;5131561;27;20383;-73
2023/08/15 12:56:28;;;;;;;2.88;2.50;;;;;;;;;;5096878;28;20058;-73
2023/08/15 12:58:54;;;;;;;2.20;2.00;;;;;;;;;;5131876;27;20055;-72
2023/08/15 13:01:20;;;;;;;4.45;2.40;;;;;;;;;;5131564;27;20077;-73
2023/08/15 13:03:46;;;;;;;4.80;2.22;;;;;;;;;;5131899;27;20070;-73
2023/08/15 13:06:12;;;;;;;3.83;2.45;;;;;;;;;;5113069;27;20417;-73
2023/08/15 13:08:38;;;;;;;4.43;2.03;;;;;;;;;;5134799;27;20035;-72
2023/08/15 13:11:04;;;;;;;2.60;2.40;;;;;;;;;;5136144;27;20035;-74
2023/08/15 13:13:30;;;;;;;3.40;2.90;;;;;;;;;;5136476;27;20429;-74
2023/08/15 13:15:56;;;;;;;2.67;2.47;;;;;;;;;;5139414;27;20493;-73
2023/08/15 13:18:22;;;;;;;4.50;2.80;;;;;;;;;;5119896;27;20118;-72
2023/08/15 13:20:48;;;;;;;2.97;2.30;;;;;;;;;;5117883;27;20122;-74
2023/08/15 13:23:14;;;;;;;3.28;2.58;;;;;;;;;;5135855;27;20122;-73
2023/08/15 13:25:40;;;;;;;5.57;2.60;;;;;;;;;;5117705;27;20031;-73
2023/08/15 13:28:06;;;;;;;5.13;2.53;;;;;;;;;;5135602;27;20035;-75
2023/08/15 13:30:32;;;;;;;2.97;2.40;;;;;;;;;;5135633;27;20455;-70
2023/08/15 13:32:58;;;;;;;5.35;2.47;;;;;;;;;;5135749;27;20047;-73
2023/08/15 13:35:24;;;;;;;4.25;2.50;;;;;;;;;;5116975;27;20573;-73
2023/08/15 13:37:50;;;;;;;2.80;2.60;;;;;;;;;;5116927;27;20035;-73
2023/08/15 13:40:16;;;;;;;6.95;2.63;;;;;;;;;;5116686;27;20035;-71
2023/08/15 13:42:42;;;;;;;6.30;2.38;;;;;;;;;;5117325;27;20031;-74
2023/08/15 13:45:08;;;;;;;4.45;2.92;;;;;;;;;;5135414;27;20031;-73
2023/08/15 13:47:34;;;;;;;3.28;2.97;;;;;;;;;;5117284;27;20023;-72
2023/08/15 13:50:00;;;;;;;7.13;2.10;;;;;;;;;;5135437;27;20565;-72
2023/08/15 13:52:26;;;;;;;3.72;2.00;;;;;;;;;;5135123;27;20198;-73
2023/08/15 13:54:51;;;;;;;3.88;2.05;;;;;;;;;;5135144;27;20043;-73
2023/08/15 13:57:17;;;;;;;4.80;2.00;;;;;;;;;;5134947;27;20507;-73
2023/08/15 13:59:43;;;;;;;5.82;1.83;;;;;;;;;;5116914;27;20042;-75
2023/08/15 14:02:09;;;;;;;1.98;1.70;;;;;;;;;;5116358;27;20023;-73
2023/08/15 14:04:36;;;;;;;3.75;1.98;;;;;;;;;;5135167;27;20033;-73
2023/08/15 14:07:02;;;;;;;4.28;2.00;;;;;;;;;;5135602;27;20444;-73
2023/08/15 14:09:28;;;;;;;6.55;2.28;;;;;;;;;;5138024;27;20524;-73
2023/08/15 14:11:54;;;;;;;4.72;1.67;;;;;;;;;;5140447;27;20039;-73
2023/08/15 14:14:20;;;;;;;2.53;1.55;;;;;;;;;;5136072;27;20047;-73
2023/08/15 14:16:47;;;;;;;3.30;1.92;;;;;;;;;;5135353;27;20034;-73
2023/08/15 14:19:13;;;;;;;2.10;1.95;;;;;;;;;;5134349;27;20168;-73
2023/08/15 14:21:39;;;;;;;4.05;2.10;;;;;;;;;;5135083;27;20062;-73
2023/08/15 14:24:05;;;;;;;3.53;1.98;;;;;;;;;;5134246;27;20067;-73
2023/08/15 14:26:31;;;;;;;4.13;2.10;;;;;;;;;;5134686;27;20556;-73
2023/08/15 14:28:57;;;;;;;3.72;2.20;;;;;;;;;;5134877;27;20033;-73
2023/08/15 14:31:23;;;;;;;3.05;1.70;;;;;;;;;;5134974;27;20043;-74